Time;durP1;ratioP1;P1;durP2;ratioP2;P2;SDS_P1;SDS_P2;PMS_P1;PMS_P2;Temp;Humidity;BMP_temperature;BMP_pressure;BME280_temperature;BME280_humidity;BME280_pressure;Samples;Min_cycle;Max_cycle;Signal;HPM_P1;HPM_P2
2023/05/05 00:02:24;;;;;;;;;;;;;;;12.83;100.00;95940.09;5066692;28;19935;-77
2023/05/05 00:04:50;;;;;;;;;;;;;;;12.82;100.00;95938.41;5054988;28;19971;-77
2023/05/05 00:07:16;;;;;;;;;;;;;;;12.79;100.00;95942.06;5061818;28;20383;-76
2023/05/05 00:09:44;;;;;;;;;;;;;;;12.71;100.00;95944.34;5059971;28;19978;-76
2023/05/05 00:12:10;;;;;;;;;;;;;;;12.58;100.00;95943.53;5056315;28;19968;-76
2023/05/05 00:14:36;;;;;;;;;;;;;;;12.43;100.00;95942.81;5064826;28;19925;-76
2023/05/05 00:17:03;;;;;;;;;;;;;;;12.30;100.00;95942.78;5060728;28;19924;-76
2023/05/05 00:19:29;;;;;;;;;;;;;;;12.27;100.00;95939.56;5060164;28;19932;-76
2023/05/05 00:21:55;;;;;;;;;;;;;;;12.29;100.00;95946.31;5058154;28;20437;-76
2023/05/05 00:24:21;;;;;;;;;;;;;;;12.37;100.00;95947.56;5054176;28;20322;-76
2023/05/05 00:26:49;;;;;;;;;;;;;;;12.40;100.00;95939.56;5051148;28;19925;-76
2023/05/05 00:29:16;;;;;;;;;;;;;;;12.30;100.00;95939.34;5058979;28;19931;-77
2023/05/05 00:31:42;;;;;;;;;;;;;;;12.27;100.00;95936.97;5054162;28;20327;-77
2023/05/05 00:34:08;;;;;;;;;;;;;;;12.11;100.00;95950.13;5059052;28;19928;-77
2023/05/05 00:36:34;;;;;;;;;;;;;;;12.07;100.00;95940.88;5046802;28;19928;-77
2023/05/05 00:39:01;;;;;;;;;;;;;;;12.09;100.00;95937.25;5048428;28;19925;-77
2023/05/05 00:41:27;;;;;;;;;;;;;;;12.15;100.00;95938.59;5052776;28;19924;-76
2023/05/05 00:43:54;;;;;;;;;;;;;;;12.18;100.00;95946.19;5061354;28;19936;-77
2023/05/05 00:46:23;;;;;;;;;;;;;;;12.15;100.00;95950.75;5054796;28;19932;-77
2023/05/05 00:48:50;;;;;;;;;;;;;;;12.13;100.00;95934.47;5057549;28;19924;-75
2023/05/05 00:51:17;;;;;;;;;;;;;;;12.18;100.00;95930.63;5050887;28;19983;-77
2023/05/05 00:53:43;;;;;;;;;;;;;;;12.22;100.00;95934.66;5060026;28;19979;-77
2023/05/05 00:56:10;;;;;;;;;;;;;;;12.13;100.00;95932.69;5061180;28;19925;-77
2023/05/05 00:58:36;;;;;;;;;;;;;;;12.15;100.00;95930.81;5060575;28;20387;-77
2023/05/05 01:01:04;;;;;;;;;;;;;;;12.22;100.00;95926.06;5051098;28;19928;-77
2023/05/05 01:03:30;;;;;;;;;;;;;;;11.93;100.00;95925.38;5055959;28;19928;-77
2023/05/05 01:06:03;;;;;;;;;;;;;;;11.66;100.00;95926.22;5059264;28;19987;-76
2023/05/05 01:08:36;;;;;;;;;;;;;;;11.53;100.00;95922.75;5065764;28;19924;-76
2023/05/05 01:11:06;;;;;;;;;;;;;;;11.50;100.00;95920.38;5050463;28;19986;-76
2023/05/05 01:13:42;;;;;;;;;;;;;;;11.78;100.00;95916.81;5057901;28;19928;-76
2023/05/05 01:16:13;;;;;;;;;;;;;;;11.67;100.00;95916.66;5059307;28;20016;-77
2023/05/05 01:18:45;;;;;;;;;;;;;;;11.47;100.00;95917.97;5067025;28;19929;-76
2023/05/05 01:21:14;;;;;;;;;;;;;;;11.32;100.00;95922.38;5067931;28;19924;-77
2023/05/05 01:23:55;;;;;;;;;;;;;;;11.45;100.00;95925.00;5067458;28;19931;-77
2023/05/05 01:26:33;;;;;;;;;;;;;;;11.56;100.00;95922.53;5053234;28;19951;-76
2023/05/05 01:29:04;;;;;;;;;;;;;;;11.67;100.00;95920.09;5065211;28;19950;-76
2023/05/05 01:31:37;;;;;;;;;;;;;;;11.76;100.00;95916.09;5051505;28;19928;-76
2023/05/05 01:34:05;;;;;;;;;;;;;;;11.81;100.00;95925.22;5060447;28;20303;-76
2023/05/05 01:36:35;;;;;;;;;;;;;;;11.77;100.00;95926.34;5058633;28;19929;-76
2023/05/05 01:39:02;;;;;;;;;;;;;;;11.78;100.00;95927.19;5054541;28;20286;-76
2023/05/05 01:41:30;;;;;;;;;;;;;;;11.81;100.00;95929.59;5060973;28;19932;-76
2023/05/05 01:43:59;;;;;;;;;;;;;;;11.84;100.00;95929.41;5044935;28;19956;-75
2023/05/05 01:46:26;;;;;;;;;;;;;;;11.91;100.00;95928.09;5057897;28;20448;-75
2023/05/05 01:48:55;;;;;;;;;;;;;;;11.97;100.00;95925.06;5055283;28;19932;-76
2023/05/05 01:51:23;;;;;;;;;;;;;;;11.99;100.00;95923.22;5063164;28;19978;-76
2023/05/05 01:53:50;;;;;;;;;;;;;;;12.05;100.00;95922.81;5057529;28;20008;-76
2023/05/05 01:56:16;;;;;;;;;;;;;;;12.03;100.00;95929.03;5062273;28;20018;-76
2023/05/05 01:58:44;;;;;;;;;;;;;;;12.05;100.00;95928.03;5061988;28;20383;-76
2023/05/05 02:01:10;;;;;;;;;;;;;;;12.07;100.00;95933.09;5062284;28;19972;-76
2023/05/05 02:03:37;;;;;;;;;;;;;;;11.90;100.00;95946.34;5064180;28;19929;-75
2023/05/05 02:06:07;;;;;;;;;;;;;;;11.93;100.00;95946.16;5056899;28;19928;-76
2023/05/05 02:08:35;;;;;;;;;;;;;;;12.00;100.00;95947.41;5044658;28;19935;-76
2023/05/05 02:11:01;;;;;;;;;;;;;;;12.10;100.00;95948.47;5036636;28;19933;-76
2023/05/05 02:13:29;;;;;;;;;;;;;;;12.10;100.00;95945.88;5064414;28;20011;-76
2023/05/05 02:15:56;;;;;;;;;;;;;;;12.11;100.00;95950.13;5061671;28;19924;-75
2023/05/05 02:18:24;;;;;;;;;;;;;;;12.37;100.00;95950.16;5061164;28;20619;-76
2023/05/05 02:20:52;;;;;;;;;;;;;;;12.09;100.00;95949.41;5056064;28;19925;-77
2023/05/05 02:23:20;;;;;;;;;;;;;;;11.94;100.00;95947.81;5054605;28;19928;-76
2023/05/05 02:25:50;;;;;;;;;;;;;;;11.94;100.00;95955.59;5066783;28;20395;-76
2023/05/05 02:28:20;;;;;;;;;;;;;;;11.97;100.00;95943.25;5041348;28;20027;-76
2023/05/05 02:30:50;;;;;;;;;;;;;;;11.80;100.00;95956.47;5053158;28;19929;-76
2023/05/05 02:33:19;;;;;;;;;;;;;;;11.69;100.00;95943.38;5062403;28;19928;-77
2023/05/05 02:35:46;;;;;;;;;;;;;;;11.67;100.00;95953.81;5055453;28;19925;-76
2023/05/05 02:38:13;;;;;;;;;;;;;;;11.68;100.00;95959.84;5056406;28;20325;-76
2023/05/05 02:40:42;;;;;;;;;;;;;;;11.72;100.00;95958.75;5059567;28;19964;-77
2023/05/05 02:43:10;;;;;;;;;;;;;;;11.56;100.00;95953.69;5072521;28;20348;-76
2023/05/05 02:45:36;;;;;;;;;;;;;;;11.43;100.00;95958.00;5054871;28;19929;-76
2023/05/05 02:48:03;;;;;;;;;;;;;;;11.32;100.00;95964.69;5073019;28;19928;-77
2023/05/05 02:50:30;;;;;;;;;;;;;;;11.34;100.00;95959.38;5066357;28;20011;-77
2023/05/05 02:52:56;;;;;;;;;;;;;;;11.45;100.00;95971.69;5056402;28;19924;-77
2023/05/05 02:55:22;;;;;;;;;;;;;;;11.34;100.00;95968.00;5067895;28;19971;-76
2023/05/05 02:57:53;;;;;;;;;;;;;;;11.26;100.00;95959.88;5054360;28;19928;-77
2023/05/05 03:03:05;;;;;;;;;;;;;;;11.46;100.00;95965.56;5111812;27;20394;-76
2023/05/05 03:05:35;;;;;;;;;;;;;;;11.58;100.00;95970.00;5093141;28;20370;-77
2023/05/05 03:08:03;;;;;;;;;;;;;;;11.68;100.00;95967.63;5097236;28;20007;-77
2023/05/05 03:10:30;;;;;;;;;;;;;;;11.76;100.00;95963.63;5097181;28;19924;-77
2023/05/05 03:12:58;;;;;;;;;;;;;;;11.80;100.00;95954.72;5106484;28;19978;-77
2023/05/05 03:15:27;;;;;;;;;;;;;;;11.77;100.00;95959.25;5105705;28;19931;-77
2023/05/05 03:17:55;;;;;;;;;;;;;;;11.75;100.00;95958.50;5104576;28;20302;-77
2023/05/05 03:20:22;;;;;;;;;;;;;;;11.77;100.00;95960.09;5108532;28;19949;-76
2023/05/05 03:22:49;;;;;;;;;;;;;;;11.91;100.00;95959.22;5094913;28;19931;-76
2023/05/05 03:25:15;;;;;;;;;;;;;;;12.03;100.00;95953.22;5107169;28;19977;-77
2023/05/05 03:27:41;;;;;;;;;;;;;;;12.06;100.00;95952.22;5100862;28;19924;-76
2023/05/05 03:30:08;;;;;;;;;;;;;;;12.09;100.00;95947.66;5097947;28;19924;-76
2023/05/05 03:32:35;;;;;;;;;;;;;;;12.13;100.00;95953.47;5109475;28;19969;-77
2023/05/05 03:35:01;;;;;;;;;;;;;;;12.18;100.00;95945.38;5105890;28;19932;-77
2023/05/05 03:37:29;;;;;;;;;;;;;;;12.20;100.00;95954.72;5099820;28;20286;-77
2023/05/05 03:39:55;;;;;;;;;;;;;;;12.25;100.00;95957.00;5087622;28;19928;-77
2023/05/05 03:42:21;;;;;;;;;;;;;;;12.26;100.00;95953.47;5075252;28;19932;-77
2023/05/05 03:44:47;;;;;;;;;;;;;;;12.28;100.00;95949.03;5097128;28;19924;-77
2023/05/05 03:47:14;;;;;;;;;;;;;;;12.29;100.00;95951.50;5085481;28;19935;-77
2023/05/05 03:49:40;;;;;;;;;;;;;;;12.34;100.00;95946.81;5102429;28;19924;-77
2023/05/05 03:52:06;;;;;;;;;;;;;;;12.27;100.00;95948.19;5094497;28;19928;-77
2023/05/05 03:54:34;;;;;;;;;;;;;;;12.23;100.00;95961.47;5079408;28;19929;-76
2023/05/05 03:57:01;;;;;;;;;;;;;;;12.13;100.00;95950.06;5089102;28;19924;-77
2023/05/05 03:59:27;;;;;;;;;;;;;;;12.07;100.00;95953.88;5096686;28;19924;-77
2023/05/05 04:01:53;;;;;;;;;;;;;;;12.09;100.00;95952.84;5116154;28;20382;-76
2023/05/05 04:04:20;;;;;;;;;;;;;;;12.06;100.00;95957.41;5109903;28;20018;-77
2023/05/05 04:06:46;;;;;;;;;;;;;;;12.05;100.00;95955.72;5117030;28;19970;-77
2023/05/05 04:09:13;;;;;;;;;;;;;;;12.00;100.00;95957.78;5123796;28;19936;-77
2023/05/05 04:11:40;;;;;;;;;;;;;;;12.00;100.00;95955.19;5111951;28;19985;-76
2023/05/05 04:14:07;;;;;;;;;;;;;;;11.83;100.00;95953.69;5099361;28;19932;-77
2023/05/05 04:16:33;;;;;;;;;;;;;;;11.87;100.00;95960.38;5085673;28;19932;-77
2023/05/05 04:18:59;;;;;;;;;;;;;;;11.79;100.00;95967.75;5094703;28;19924;-76
2023/05/05 04:21:26;;;;;;;;;;;;;;;11.68;100.00;95967.63;5099767;28;20386;-76
2023/05/05 04:23:52;;;;;;;;;;;;;;;11.73;100.00;95971.59;5094488;28;20581;-77
2023/05/05 04:26:18;;;;;;;;;;;;;;;11.80;100.00;95965.09;5109228;28;19974;-77
2023/05/05 04:28:46;;;;;;;;;;;;;;;11.84;100.00;95963.16;5105458;28;19928;-77
2023/05/05 04:31:12;;;;;;;;;;;;;;;11.56;100.00;95972.66;5099132;28;19931;-76
2023/05/05 04:33:38;;;;;;;;;;;;;;;11.71;100.00;95968.25;5101035;28;20439;-77
2023/05/05 04:36:05;;;;;;;;;;;;;;;11.80;100.00;95965.09;5102543;28;19928;-75
2023/05/05 04:38:31;;;;;;;;;;;;;;;11.67;100.00;95971.16;5089437;28;19923;-75
2023/05/05 04:40:58;;;;;;;;;;;;;;;11.82;100.00;95970.16;5104770;28;19923;-76
2023/05/05 04:43:25;;;;;;;;;;;;;;;11.71;100.00;95983.00;5103370;28;19974;-76
2023/05/05 04:45:55;;;;;;;;;;;;;;;11.70;100.00;95976.16;5104602;28;19928;-75
2023/05/05 04:48:21;;;;;;;;;;;;;;;11.76;100.00;95980.97;5100841;28;20402;-75
2023/05/05 04:50:47;;;;;;;;;;;;;;;11.82;100.00;95976.19;5108685;28;20362;-75
2023/05/05 04:53:14;;;;;;;;;;;;;;;11.82;100.00;95976.19;5104893;28;19928;-76
2023/05/05 04:55:40;;;;;;;;;;;;;;;11.82;100.00;95973.59;5103579;28;19924;-76
2023/05/05 04:58:06;;;;;;;;;;;;;;;12.08;100.00;95969.31;5103038;28;19954;-76
2023/05/05 05:00:32;;;;;;;;;;;;;;;12.19;100.00;95971.22;5108091;28;19932;-76
2023/05/05 05:03:01;;;;;;;;;;;;;;;11.88;100.00;95963.78;5101999;28;20259;-76
2023/05/05 05:05:27;;;;;;;;;;;;;;;11.58;100.00;95978.59;5104064;28;19924;-76
2023/05/05 05:07:53;;;;;;;;;;;;;;;11.61;100.00;95978.41;5102173;28;19927;-76
2023/05/05 05:10:20;;;;;;;;;;;;;;;11.86;100.00;95979.44;5106862;28;20014;-76
2023/05/05 05:12:47;;;;;;;;;;;;;;;11.94;100.00;95974.63;5106566;28;19924;-76
2023/05/05 05:15:13;;;;;;;;;;;;;;;12.08;100.00;95986.69;5105554;28;19931;-76
2023/05/05 05:17:39;;;;;;;;;;;;;;;12.29;100.00;95974.88;5103044;28;19949;-77
2023/05/05 05:20:08;;;;;;;;;;;;;;;12.33;100.00;95986.72;5102206;28;20386;-77
2023/05/05 05:22:37;;;;;;;;;;;;;;;12.50;100.00;95987.38;5106158;28;19923;-76
2023/05/05 05:25:03;;;;;;;;;;;;;;;12.59;100.00;95992.78;5102861;28;19982;-76
2023/05/05 05:27:29;;;;;;;;;;;;;;;12.92;100.00;95985.41;5101320;28;19924;-76
2023/05/05 05:29:56;;;;;;;;;;;;;;;12.85;100.00;95990.19;5099228;28;19924;-76
2023/05/05 05:32:22;;;;;;;;;;;;;;;12.75;100.00;95996.94;5105291;28;19973;-79
2023/05/05 05:34:48;;;;;;;;;;;;;;;12.79;100.00;95996.66;5097474;28;20345;-75
2023/05/05 05:37:16;;;;;;;;;;;;;;;12.79;100.00;95998.41;5105064;28;19935;-77
2023/05/05 05:39:42;;;;;;;;;;;;;;;12.96;100.00;96008.47;5098070;28;19924;-76
2023/05/05 05:42:08;;;;;;;;;;;;;;;13.06;100.00;96006.09;5109783;28;19932;-76
2023/05/05 05:44:35;;;;;;;;;;;;;;;13.20;100.00;96002.53;5103741;28;20287;-76
2023/05/05 05:47:01;;;;;;;;;;;;;;;13.32;100.00;96004.31;5097357;28;19967;-76
2023/05/05 05:49:27;;;;;;;;;;;;;;;13.39;100.00;96009.94;5097942;28;19923;-76
2023/05/05 05:51:54;;;;;;;;;;;;;;;13.44;100.00;96010.44;5109846;28;19923;-72
2023/05/05 05:54:21;;;;;;;;;;;;;;;13.55;100.00;96013.94;5095036;28;19924;-76
2023/05/05 05:56:48;;;;;;;;;;;;;;;13.68;100.00;96013.91;5101132;28;20340;-75
2023/05/05 05:59:14;;;;;;;;;;;;;;;13.73;100.00;96008.38;5094904;28;19931;-74
2023/05/05 06:01:40;;;;;;;;;;;;;;;13.87;100.00;96015.16;5107682;28;19924;-74
2023/05/05 06:04:06;;;;;;;;;;;;;;;13.92;100.00;96019.13;5108265;28;19924;-75
2023/05/05 06:06:33;;;;;;;;;;;;;;;13.97;100.00;96018.78;5104076;28;19928;-76
2023/05/05 06:08:59;;;;;;;;;;;;;;;14.03;100.00;96021.78;5108581;28;19973;-75
2023/05/05 06:11:26;;;;;;;;;;;;;;;14.02;100.00;96020.13;5099613;28;20022;-73
2023/05/05 06:13:53;;;;;;;;;;;;;;;14.08;100.00;96015.41;5105000;28;19928;-74
2023/05/05 06:16:19;;;;;;;;;;;;;;;14.08;100.00;96018.81;5101960;28;19932;-75
2023/05/05 06:18:45;;;;;;;;;;;;;;;14.15;100.00;96016.63;5107109;28;19953;-74
2023/05/05 06:21:12;;;;;;;;;;;;;;;14.15;100.00;96014.00;5101815;28;20392;-74
2023/05/05 06:23:38;;;;;;;;;;;;;;;14.19;100.00;96020.66;5107915;28;20000;-75
2023/05/05 06:26:05;;;;;;;;;;;;;;;14.20;100.00;96017.94;5084766;28;19924;-71
2023/05/05 06:28:32;;;;;;;;;;;;;;;14.22;100.00;96016.03;5099366;28;19968;-71
2023/05/05 06:30:59;;;;;;;;;;;;;;;14.26;100.00;96020.09;5102173;28;19932;-74
2023/05/05 06:33:25;;;;;;;;;;;;;;;14.33;100.00;96020.47;5105386;28;19928;-73
2023/05/05 06:35:52;;;;;;;;;;;;;;;14.37;100.00;96014.09;5098992;28;20013;-73
2023/05/05 06:38:18;;;;;;;;;;;;;;;14.41;100.00;96017.31;5103766;28;19928;-73
2023/05/05 06:40:44;;;;;;;;;;;;;;;14.42;100.00;96018.94;5091726;28;19924;-73
2023/05/05 06:43:10;;;;;;;;;;;;;;;14.38;100.00;96020.97;5080845;28;19970;-75
2023/05/05 06:45:38;;;;;;;;;;;;;;;14.42;100.00;96018.94;5073732;28;19924;-76
2023/05/05 06:48:04;;;;;;;;;;;;;;;14.44;100.00;96027.50;5081425;28;19924;-75
2023/05/05 06:50:31;;;;;;;;;;;;;;;14.39;100.00;96021.81;5081997;28;20379;-76
2023/05/05 06:52:57;;;;;;;;;;;;;;;14.44;100.00;96019.69;5076358;28;20339;-75
2023/05/05 06:55:23;;;;;;;;;;;;;;;14.48;100.00;96021.13;5079545;28;19982;-74
2023/05/05 06:57:50;;;;;;;;;;;;;;;14.45;100.00;96022.16;5079473;28;19962;-74
2023/05/05 07:00:17;;;;;;;;;;;;;;;14.46;100.00;96023.00;5082817;28;19928;-74
2023/05/05 07:02:46;;;;;;;;;;;;;;;14.49;100.00;96027.97;5081601;28;20456;-75
2023/05/05 07:05:12;;;;;;;;;;;;;;;14.50;100.00;96025.31;5078925;28;20383;-74
2023/05/05 07:07:40;;;;;;;;;;;;;;;14.43;100.00;96024.06;5084449;28;19932;-74
2023/05/05 07:10:08;;;;;;;;;;;;;;;14.49;100.00;96030.59;5088059;28;19928;-74
2023/05/05 07:12:34;;;;;;;;;;;;;;;14.45;100.00;96032.59;5079985;28;19928;-74
2023/05/05 07:15:00;;;;;;;;;;;;;;;14.46;100.00;96023.00;5073378;28;19928;-74
2023/05/05 07:17:27;;;;;;;;;;;;;;;14.48;100.00;96041.97;5084948;28;19943;-73
2023/05/05 07:19:54;;;;;;;;;;;;;;;14.50;100.00;96034.91;5083359;28;19935;-73
2023/05/05 07:22:21;;;;;;;;;;;;;;;14.50;100.00;96040.94;5079572;28;20027;-74
2023/05/05 07:24:47;;;;;;;;;;;;;;;14.43;100.00;96037.09;5074291;28;19925;-74
2023/05/05 07:27:13;;;;;;;;;;;;;;;14.40;100.00;96047.75;5077459;28;19932;-77
2023/05/05 07:29:40;;;;;;;;;;;;;;;14.34;100.00;96052.56;5073571;28;20029;-73
2023/05/05 07:32:06;;;;;;;;;;;;;;;14.26;100.00;96053.94;5077779;28;19981;-73
2023/05/05 07:34:33;;;;;;;;;;;;;;;14.25;100.00;96052.31;5077412;28;19969;-73
2023/05/05 07:37:00;;;;;;;;;;;;;;;14.28;100.00;96044.25;5081611;28;19935;-77
2023/05/05 07:39:27;;;;;;;;;;;;;;;14.25;100.00;96048.88;5078845;28;19932;-77
2023/05/05 07:41:53;;;;;;;;;;;;;;;14.24;100.00;96050.66;5079994;28;19928;-77
2023/05/05 07:44:19;;;;;;;;;;;;;;;14.22;100.00;96051.69;5082400;28;19978;-77
2023/05/05 07:46:46;;;;;;;;;;;;;;;14.16;100.00;96047.75;5077312;28;19924;-77
2023/05/05 07:49:12;;;;;;;;;;;;;;;14.18;100.00;96043.28;5082831;28;19932;-76
2023/05/05 07:51:38;;;;;;;;;;;;;;;14.17;100.00;96051.22;5086680;28;19928;-76
2023/05/05 07:54:06;;;;;;;;;;;;;;;14.15;100.00;96042.66;5089220;28;20345;-77
2023/05/05 07:56:32;;;;;;;;;;;;;;;14.20;100.00;96046.59;5085530;28;19931;-76
2023/05/05 07:58:58;;;;;;;;;;;;;;;14.32;100.00;96039.66;5091366;28;19924;-74
2023/05/05 08:01:25;;;;;;;;;;;;;;;14.38;100.00;96038.38;5087294;28;19924;-72
2023/05/05 08:03:51;;;;;;;;;;;;;;;14.43;100.00;96039.72;5078815;28;19925;-73
2023/05/05 08:06:20;;;;;;;;;;;;;;;14.50;100.00;96033.13;5069703;28;19929;-72
2023/05/05 08:08:47;;;;;;;;;;;;;;;14.57;100.00;96030.88;5088237;28;20452;-75
2023/05/05 08:11:14;;;;;;;;;;;;;;;14.68;100.00;96035.28;5085933;28;20356;-74
2023/05/05 08:13:41;;;;;;;;;;;;;;;14.82;100.00;96040.31;5077572;28;19928;-75
2023/05/05 08:16:07;;;;;;;;;;;;;;;14.91;100.00;96034.41;5084316;28;19928;-76
2023/05/05 08:18:36;;;;;;;;;;;;;;;14.94;100.00;96035.94;5092789;28;20329;-75
2023/05/05 08:21:02;;;;;;;;;;;;;;;15.00;100.00;96036.31;5083306;28;20027;-75
2023/05/05 08:23:29;;;;;;;;;;;;;;;15.03;100.00;96031.81;5088364;28;19932;-75
2023/05/05 08:25:55;;;;;;;;;;;;;;;15.05;100.00;96038.56;5081071;28;19924;-75
2023/05/05 08:28:22;;;;;;;;;;;;;;;15.07;100.00;96048.88;5089272;28;19928;-75
2023/05/05 08:30:49;;;;;;;;;;;;;;;14.93;100.00;96042.09;5080176;28;20023;-75
2023/05/05 08:33:15;;;;;;;;;;;;;;;14.86;100.00;96049.56;5091639;28;19928;-75
2023/05/05 08:35:42;;;;;;;;;;;;;;;14.85;100.00;96047.06;5086190;28;20287;-75
2023/05/05 08:38:08;;;;;;;;;;;;;;;14.84;100.00;96051.47;5089506;28;20064;-76
2023/05/05 08:40:36;;;;;;;;;;;;;;;14.88;100.00;96036.41;5087676;28;19932;-76
2023/05/05 08:43:03;;;;;;;;;;;;;;;14.97;100.00;96038.31;5090208;28;20347;-76
2023/05/05 08:45:31;;;;;;;;;;;;;;;14.99;100.00;96039.03;5077557;28;19924;-76
2023/05/05 08:47:58;;;;;;;;;;;;;;;15.03;100.00;96040.47;5077729;28;19932;-75
2023/05/05 08:50:25;;;;;;;;;;;;;;;15.03;100.00;96042.25;5076925;28;20002;-75
2023/05/05 08:52:53;;;;;;;;;;;;;;;15.21;100.00;96044.28;5081930;28;20361;-75
2023/05/05 08:55:24;;;;;;;;;;;;;;;15.31;100.00;96039.16;5086105;28;19931;-75
2023/05/05 08:57:51;;;;;;;;;;;;;;;15.39;100.00;96036.81;5073592;28;19931;-76
2023/05/05 09:00:18;;;;;;;;;;;;;;;15.42;100.00;96031.31;5077855;28;19928;-72
2023/05/05 09:02:46;;;;;;;;;;;;;;;15.46;100.00;96027.56;5078909;28;19981;-76
2023/05/05 09:05:13;;;;;;;;;;;;;;;15.51;100.00;96023.75;5073677;28;19936;-75
2023/05/05 09:07:40;;;;;;;;;;;;;;;15.62;100.00;96027.16;5079534;28;19931;-74
2023/05/05 09:10:07;;;;;;;;;;;;;;;15.67;100.00;96029.44;5083526;28;19925;-75
2023/05/05 09:12:34;;;;;;;;;;;;;;;15.67;100.00;96035.50;5073148;28;19924;-76
2023/05/05 09:15:02;;;;;;;;;;;;;;;15.82;100.00;96032.63;5080689;28;20348;-76
2023/05/05 09:17:28;;;;;;;;;;;;;;;15.77;100.00;96038.22;5080323;28;20471;-75
2023/05/05 09:20:00;;;;;;;;;;;;;;;16.11;100.00;96044.19;5082457;28;20365;-75
2023/05/05 09:22:32;;;;;;;;;;;;;;;16.29;100.00;96036.66;5078763;28;20457;-75
2023/05/05 09:24:59;;;;;;;;;;;;;;;16.25;100.00;96042.25;5084494;28;20241;-75
2023/05/05 09:27:25;;;;;;;;;;;;;;;16.05;100.00;96042.06;5078457;28;19924;-75
2023/05/05 09:29:51;;;;;;;;;;;;;;;15.99;100.00;96037.34;5084038;28;19927;-76
2023/05/05 09:32:18;;;;;;;;;;;;;;;16.07;100.00;96044.56;5078916;28;19974;-75
2023/05/05 09:34:56;;;;;;;;;;;;;;;16.00;100.00;96030.31;5074536;28;19969;-75
2023/05/05 09:37:28;;;;;;;;;;;;;;;15.90;100.00;96041.50;5084969;28;20326;-76
2023/05/05 09:39:55;;;;;;;;;;;;;;;15.99;100.00;96044.34;5083918;28;20374;-76
2023/05/05 09:42:21;;;;;;;;;;;;;;;16.00;100.00;96043.38;5082257;28;19924;-75
2023/05/05 09:44:48;;;;;;;;;;;;;;;16.00;100.00;96043.38;5071309;28;19943;-75
2023/05/05 09:47:14;;;;;;;;;;;;;;;16.05;100.00;96034.22;5067961;28;19924;-75
2023/05/05 09:49:40;;;;;;;;;;;;;;;15.94;100.00;96036.84;5068148;28;19928;-76
2023/05/05 09:52:11;;;;;;;;;;;;;;;15.90;100.00;96043.28;5082139;28;19970;-75
2023/05/05 09:54:39;;;;;;;;;;;;;;;15.87;100.00;96031.31;5076113;28;20340;-74
2023/05/05 09:57:05;;;;;;;;;;;;;;;15.97;100.00;96039.22;5078071;28;20040;-74
2023/05/05 09:59:32;;;;;;;;;;;;;;;15.80;100.00;96032.75;5063494;28;19924;-75
2023/05/05 10:02:09;;;;;;;;;;;;;;;15.80;100.00;96029.31;5082475;28;19928;-76
2023/05/05 10:04:35;;;;;;;;;;;;;;;15.73;100.00;96032.41;5075307;28;19969;-76
2023/05/05 10:07:02;;;;;;;;;;;;;;;15.75;100.00;96028.84;5080434;28;19924;-76
2023/05/05 10:09:28;;;;;;;;;;;;;;;15.80;100.00;96024.91;5078223;28;19933;-76
2023/05/05 10:11:56;;;;;;;;;;;;;;;15.75;100.00;96027.06;5083256;28;19924;-76
2023/05/05 10:14:23;;;;;;;;;;;;;;;15.79;100.00;96025.03;5084565;28;20447;-76
2023/05/05 10:16:51;;;;;;;;;;;;;;;15.83;100.00;96029.06;5070479;28;19924;-76
2023/05/05 10:19:18;;;;;;;;;;;;;;;15.79;100.00;96025.03;5083284;28;20398;-76
2023/05/05 10:21:49;;;;;;;;;;;;;;;15.96;100.00;96020.13;5083345;28;19931;-75
2023/05/05 10:24:17;;;;;;;;;;;;;;;16.00;100.00;96020.72;5075401;28;19970;-75
2023/05/05 10:26:44;;;;;;;;;;;;;;;15.96;100.00;96009.66;5079314;28;19931;-74
2023/05/05 10:29:15;;;;;;;;;;;;;;;16.06;100.00;96006.34;5084245;28;19928;-75
2023/05/05 10:31:47;;;;;;;;;;;;;;;16.06;100.00;96009.78;5083396;28;20436;-75
2023/05/05 10:34:19;;;;;;;;;;;;;;;16.13;100.00;96021.38;5071629;28;19930;-74
2023/05/05 10:36:45;;;;;;;;;;;;;;;16.25;100.00;96013.50;5080429;28;19928;-74
2023/05/05 10:39:14;;;;;;;;;;;;;;;16.30;100.00;96008.72;5080599;28;19983;-74
2023/05/05 10:41:41;;;;;;;;;;;;;;;16.34;100.00;96002.28;5078721;28;20415;-74
2023/05/05 10:44:09;;;;;;;;;;;;;;;16.61;100.00;96001.78;5079569;28;19928;-74
2023/05/05 10:46:37;;;;;;;;;;;;;;;16.73;100.00;95997.34;5092326;28;19924;-74
2023/05/05 10:49:08;;;;;;;;;;;;;;;16.88;100.00;95991.66;5075894;28;19978;-74
2023/05/05 10:51:39;;;;;;;;;;;;;;;17.02;100.00;95993.13;5071316;28;19924;-75
2023/05/05 10:54:09;;;;;;;;;;;;;;;16.99;100.00;95992.56;5078436;28;20307;-75
2023/05/05 10:56:35;;;;;;;;;;;;;;;17.11;100.00;95994.94;5071802;28;19924;-72
2023/05/05 10:59:01;;;;;;;;;;;;;;;17.20;100.00;95988.09;5075552;28;19985;-75
2023/05/05 11:01:32;;;;;;;;;;;;;;;17.21;100.00;95988.94;5083058;28;19932;-75
2023/05/05 11:04:18;;;;;;;;;;;;;;;17.37;100.00;95984.03;5075385;28;20027;-75
2023/05/05 11:06:59;;;;;;;;;;;;;;;17.53;100.00;95994.00;5071653;28;20389;-76
2023/05/05 11:09:29;;;;;;;;;;;;;;;17.67;100.00;95993.63;5084030;28;20659;-75
2023/05/05 11:12:02;;;;;;;;;;;;;;;17.86;100.00;95985.81;5073225;28;20011;-76
2023/05/05 11:14:28;;;;;;;;;;;;;;;17.93;100.00;95987.91;5071392;28;19931;-76
2023/05/05 11:16:55;;;;;;;;;;;;;;;18.05;100.00;95971.09;5090910;28;19931;-76
2023/05/05 11:19:40;;;;;;;;;;;;;;;18.09;100.00;95968.03;5086634;28;19924;-76
2023/05/05 11:22:07;;;;;;;;;;;;;;;18.48;100.00;95968.03;5077487;28;19924;-76
2023/05/05 11:24:35;;;;;;;;;;;;;;;18.57;100.00;95961.13;5084473;28;19924;-76
2023/05/05 11:27:02;;;;;;;;;;;;;;;18.65;100.00;95961.25;5087617;28;19928;-76
2023/05/05 11:29:48;;;;;;;;;;;;;;;18.91;100.00;95961.50;5090335;28;19993;-75
2023/05/05 11:32:15;;;;;;;;;;;;;;;19.13;100.00;95967.34;5082601;28;19928;-76
2023/05/05 11:34:48;;;;;;;;;;;;;;;19.28;100.00;95955.38;5090224;28;20011;-75
2023/05/05 11:37:16;;;;;;;;;;;;;;;19.36;100.00;95954.69;5085439;28;19924;-76
2023/05/05 11:39:49;;;;;;;;;;;;;;;19.29;100.00;95951.81;5083241;28;19924;-76
2023/05/05 11:42:21;;;;;;;;;;;;;;;19.22;100.00;95940.25;5081718;28;19928;-76
2023/05/05 11:44:48;;;;;;;;;;;;;;;19.42;100.00;95940.97;5088510;28;20406;-76
2023/05/05 11:47:24;;;;;;;;;;;;;;;19.77;100.00;95935.81;5079452;28;20362;-76
2023/05/05 11:49:50;;;;;;;;;;;;;;;19.70;100.00;95937.38;5081570;28;19986;-75
2023/05/05 11:52:18;;;;;;;;;;;;;;;19.25;100.00;95934.69;5070975;28;19932;-76
2023/05/05 11:54:46;;;;;;;;;;;;;;;19.21;100.00;95931.53;5072409;28;19946;-76
2023/05/05 11:57:13;;;;;;;;;;;;;;;19.13;100.00;95939.28;5075480;28;19972;-75
2023/05/05 11:59:49;;;;;;;;;;;;;;;18.89;100.00;95934.56;5082290;28;19928;-75
2023/05/05 12:02:16;;;;;;;;;;;;;;;19.12;100.00;95924.53;5075653;28;19924;-76
2023/05/05 12:04:42;;;;;;;;;;;;;;;19.58;100.00;95926.22;5082426;28;19928;-75
2023/05/05 12:07:14;;;;;;;;;;;;;;;19.59;100.00;95922.59;5079508;28;19932;-76
2023/05/05 12:09:42;;;;;;;;;;;;;;;19.63;100.00;95915.28;5087031;28;19932;-76
2023/05/05 12:12:08;;;;;;;;;;;;;;;19.74;100.00;95914.25;5086385;28;19932;-76
2023/05/05 12:14:34;;;;;;;;;;;;;;;19.99;100.00;95916.13;5084664;28;19928;-76
2023/05/05 12:17:06;;;;;;;;;;;;;;;20.14;100.00;95915.59;5081855;28;19929;-76
2023/05/05 12:19:32;;;;;;;;;;;;;;;20.14;100.00;95908.53;5079614;28;19932;-76
2023/05/05 12:21:59;;;;;;;;;;;;;;;19.78;100.00;95890.16;5078858;28;19971;-76
2023/05/05 12:24:25;;;;;;;;;;;;;;;20.14;100.00;95898.03;5082665;28;19928;-76
2023/05/05 12:26:53;;;;;;;;;;;;;;;20.11;100.00;95900.13;5091560;28;19971;-75
2023/05/05 12:29:23;;;;;;;;;;;;;;;20.30;100.00;95889.44;5088067;28;19924;-76
2023/05/05 12:31:49;;;;;;;;;;;;;;;20.18;100.00;95888.03;5084243;28;19928;-75
2023/05/05 12:34:16;;;;;;;;;;;;;;;20.19;100.00;95887.88;5089070;28;19982;-75
2023/05/05 12:36:43;;;;;;;;;;;;;;;20.30;100.00;95878.91;5087377;28;20010;-76
2023/05/05 12:39:09;;;;;;;;;;;;;;;20.30;100.00;95871.00;5074311;28;20626;-75
2023/05/05 12:41:35;;;;;;;;;;;;;;;20.52;100.00;95877.59;5087896;28;20348;-75